sensor_id;sensor_type;location;lat;lon;timestamp;P1;durP1;ratioP1;P2;durP2;ratioP2
15454;SDS011;21057;51.024;7.540;2023-01-15T00:01:20;27.93;;;25.87;;
15454;SDS011;21057;51.024;7.540;2023-01-15T00:03:48;28.70;;;26.90;;
15454;SDS011;21057;51.024;7.540;2023-01-15T00:06:16;27.17;;;25.47;;
15454;SDS011;21057;51.024;7.540;2023-01-15T00:08:44;26.63;;;25.03;;
15454;SDS011;21057;51.024;7.540;2023-01-15T00:11:12;26.60;;;24.90;;
15454;SDS011;21057;51.024;7.540;2023-01-15T00:13:39;25.90;;;24.30;;
15454;SDS011;21057;51.024;7.540;2023-01-15T00:16:08;25.67;;;24.17;;
15454;SDS011;21057;51.024;7.540;2023-01-15T00:18:36;28.57;;;26.87;;
15454;SDS011;21057;51.024;7.540;2023-01-15T00:21:03;27.83;;;26.23;;
15454;SDS011;21057;51.024;7.540;2023-01-15T00:23:32;27.30;;;25.80;;
15454;SDS011;21057;51.024;7.540;2023-01-15T00:26:19;27.13;;;25.53;;
15454;SDS011;21057;51.024;7.540;2023-01-15T00:29:04;26.47;;;24.87;;
15454;SDS011;21057;51.024;7.540;2023-01-15T00:31:33;27.47;;;25.87;;
15454;SDS011;21057;51.024;7.540;2023-01-15T00:34:01;28.30;;;26.63;;
15454;SDS011;21057;51.024;7.540;2023-01-15T00:36:29;26.33;;;24.77;;
15454;SDS011;21057;51.024;7.540;2023-01-15T00:38:57;26.07;;;24.53;;
15454;SDS011;21057;51.024;7.540;2023-01-15T00:41:25;26.17;;;24.53;;
15454;SDS011;21057;51.024;7.540;2023-01-15T00:43:51;25.70;;;24.10;;
15454;SDS011;21057;51.024;7.540;2023-01-15T00:46:18;25.37;;;23.87;;
15454;SDS011;21057;51.024;7.540;2023-01-15T00:48:45;26.83;;;25.10;;
15454;SDS011;21057;51.024;7.540;2023-01-15T00:51:12;26.60;;;25.10;;
15454;SDS011;21057;51.024;7.540;2023-01-15T00:53:38;27.17;;;25.53;;
15454;SDS011;21057;51.024;7.540;2023-01-15T00:56:05;27.07;;;25.47;;
15454;SDS011;21057;51.024;7.540;2023-01-15T00:58:34;27.53;;;25.93;;
15454;SDS011;21057;51.024;7.540;2023-01-15T01:01:01;26.57;;;25.07;;
15454;SDS011;21057;51.024;7.540;2023-01-15T01:03:28;28.33;;;26.73;;
15454;SDS011;21057;51.024;7.540;2023-01-15T01:05:58;27.60;;;26.00;;
15454;SDS011;21057;51.024;7.540;2023-01-15T01:08:25;28.47;;;26.87;;
15454;SDS011;21057;51.024;7.540;2023-01-15T01:10:59;26.90;;;25.30;;
15454;SDS011;21057;51.024;7.540;2023-01-15T01:13:27;26.83;;;25.30;;
15454;SDS011;21057;51.024;7.540;2023-01-15T01:15:55;26.50;;;24.97;;
15454;SDS011;21057;51.024;7.540;2023-01-15T01:18:21;24.83;;;23.40;;
15454;SDS011;21057;51.024;7.540;2023-01-15T01:20:48;27.90;;;26.27;;
15454;SDS011;21057;51.024;7.540;2023-01-15T01:23:15;28.10;;;26.37;;
15454;SDS011;21057;51.024;7.540;2023-01-15T01:25:42;26.70;;;25.00;;
15454;SDS011;21057;51.024;7.540;2023-01-15T01:28:09;25.53;;;24.03;;
15454;SDS011;21057;51.024;7.540;2023-01-15T01:30:36;25.37;;;23.93;;
15454;SDS011;21057;51.024;7.540;2023-01-15T01:33:05;25.63;;;24.13;;
15454;SDS011;21057;51.024;7.540;2023-01-15T01:35:32;25.27;;;23.77;;
15454;SDS011;21057;51.024;7.540;2023-01-15T01:37:59;25.80;;;24.30;;
15454;SDS011;21057;51.024;7.540;2023-01-15T01:40:26;26.40;;;24.83;;
15454;SDS011;21057;51.024;7.540;2023-01-15T01:42:53;26.50;;;24.80;;
15454;SDS011;21057;51.024;7.540;2023-01-15T01:45:21;25.53;;;24.03;;
15454;SDS011;21057;51.024;7.540;2023-01-15T01:47:51;26.07;;;24.03;;
15454;SDS011;21057;51.024;7.540;2023-01-15T01:50:23;25.20;;;23.70;;
15454;SDS011;21057;51.024;7.540;2023-01-15T01:52:51;26.47;;;24.97;;
15454;SDS011;21057;51.024;7.540;2023-01-15T01:55:22;25.73;;;24.23;;
15454;SDS011;21057;51.024;7.540;2023-01-15T01:57:50;27.17;;;25.57;;
15454;SDS011;21057;51.024;7.540;2023-01-15T02:00:19;26.70;;;25.20;;
15454;SDS011;21057;51.024;7.540;2023-01-15T02:02:48;27.30;;;25.70;;
15454;SDS011;21057;51.024;7.540;2023-01-15T02:05:20;26.77;;;25.27;;
15454;SDS011;21057;51.024;7.540;2023-01-15T02:07:53;26.80;;;25.27;;
15454;SDS011;21057;51.024;7.540;2023-01-15T02:10:21;27.37;;;25.77;;
15454;SDS011;21057;51.024;7.540;2023-01-15T02:12:48;29.00;;;27.30;;
15454;SDS011;21057;51.024;7.540;2023-01-15T02:15:23;27.97;;;26.37;;
15454;SDS011;21057;51.024;7.540;2023-01-15T02:17:55;28.07;;;26.47;;
15454;SDS011;21057;51.024;7.540;2023-01-15T02:20:30;27.50;;;25.90;;
15454;SDS011;21057;51.024;7.540;2023-01-15T02:23:04;27.13;;;25.30;;
15454;SDS011;21057;51.024;7.540;2023-01-15T02:28:46;25.80;;;24.30;;
15454;SDS011;21057;51.024;7.540;2023-01-15T02:31:23;25.70;;;24.00;;
15454;SDS011;21057;51.024;7.540;2023-01-15T02:33:55;25.37;;;23.87;;
15454;SDS011;21057;51.024;7.540;2023-01-15T02:36:26;25.27;;;23.60;;
15454;SDS011;21057;51.024;7.540;2023-01-15T02:38:57;26.00;;;24.40;;
15454;SDS011;21057;51.024;7.540;2023-01-15T02:41:27;26.13;;;24.07;;
15454;SDS011;21057;51.024;7.540;2023-01-15T02:43:59;25.13;;;23.73;;
15454;SDS011;21057;51.024;7.540;2023-01-15T02:46:29;26.07;;;24.57;;
15454;SDS011;21057;51.024;7.540;2023-01-15T02:48:58;25.70;;;24.20;;
15454;SDS011;21057;51.024;7.540;2023-01-15T02:51:27;25.30;;;23.70;;
15454;SDS011;21057;51.024;7.540;2023-01-15T02:53:59;26.20;;;24.60;;
15454;SDS011;21057;51.024;7.540;2023-01-15T02:56:29;25.60;;;24.10;;
15454;SDS011;21057;51.024;7.540;2023-01-15T02:59:02;25.13;;;23.63;;
15454;SDS011;21057;51.024;7.540;2023-01-15T03:01:33;26.47;;;24.77;;
15454;SDS011;21057;51.024;7.540;2023-01-15T03:04:06;25.07;;;23.67;;
15454;SDS011;21057;51.024;7.540;2023-01-15T03:06:36;26.07;;;24.17;;
15454;SDS011;21057;51.024;7.540;2023-01-15T03:09:09;24.80;;;23.40;;
15454;SDS011;21057;51.024;7.540;2023-01-15T03:11:40;25.30;;;23.80;;
15454;SDS011;21057;51.024;7.540;2023-01-15T03:14:15;26.07;;;24.57;;
15454;SDS011;21057;51.024;7.540;2023-01-15T03:16:46;25.40;;;24.00;;
15454;SDS011;21057;51.024;7.540;2023-01-15T03:19:20;25.50;;;24.00;;
15454;SDS011;21057;51.024;7.540;2023-01-15T03:21:51;25.60;;;24.10;;
15454;SDS011;21057;51.024;7.540;2023-01-15T03:24:23;26.60;;;25.10;;
15454;SDS011;21057;51.024;7.540;2023-01-15T03:26:54;25.33;;;23.90;;
15454;SDS011;21057;51.024;7.540;2023-01-15T03:29:22;25.23;;;23.73;;
15454;SDS011;21057;51.024;7.540;2023-01-15T03:31:52;25.70;;;23.97;;
15454;SDS011;21057;51.024;7.540;2023-01-15T03:34:20;26.33;;;24.47;;
15454;SDS011;21057;51.024;7.540;2023-01-15T03:36:50;25.60;;;24.13;;
15454;SDS011;21057;51.024;7.540;2023-01-15T03:39:16;24.60;;;23.20;;
15454;SDS011;21057;51.024;7.540;2023-01-15T03:41:45;26.40;;;24.13;;
15454;SDS011;21057;51.024;7.540;2023-01-15T03:44:24;25.70;;;24.10;;
15454;SDS011;21057;51.024;7.540;2023-01-15T03:47:02;25.57;;;24.07;;
15454;SDS011;21057;51.024;7.540;2023-01-15T03:49:41;24.93;;;23.53;;
15454;SDS011;21057;51.024;7.540;2023-01-15T03:52:17;26.23;;;24.73;;
15454;SDS011;21057;51.024;7.540;2023-01-15T03:54:49;25.50;;;24.10;;
15454;SDS011;21057;51.024;7.540;2023-01-15T03:57:21;25.77;;;24.27;;
15454;SDS011;21057;51.024;7.540;2023-01-15T03:59:55;26.23;;;24.73;;
15454;SDS011;21057;51.024;7.540;2023-01-15T04:02:26;27.07;;;25.50;;
15454;SDS011;21057;51.024;7.540;2023-01-15T04:04:56;26.17;;;24.67;;
15454;SDS011;21057;51.024;7.540;2023-01-15T04:07:25;26.40;;;24.70;;
15454;SDS011;21057;51.024;7.540;2023-01-15T04:09:52;26.83;;;25.23;;
15454;SDS011;21057;51.024;7.540;2023-01-15T04:12:19;25.93;;;24.43;;
15454;SDS011;21057;51.024;7.540;2023-01-15T04:14:46;25.80;;;24.20;;
15454;SDS011;21057;51.024;7.540;2023-01-15T04:17:14;25.07;;;23.67;;
15454;SDS011;21057;51.024;7.540;2023-01-15T04:19:41;25.40;;;23.90;;
15454;SDS011;21057;51.024;7.540;2023-01-15T04:22:09;25.87;;;24.37;;
15454;SDS011;21057;51.024;7.540;2023-01-15T04:24:36;24.97;;;23.57;;
15454;SDS011;21057;51.024;7.540;2023-01-15T04:27:03;26.47;;;24.97;;
15454;SDS011;21057;51.024;7.540;2023-01-15T04:29:30;26.00;;;24.50;;
15454;SDS011;21057;51.024;7.540;2023-01-15T04:31:57;27.73;;;26.13;;
15454;SDS011;21057;51.024;7.540;2023-01-15T04:34:27;26.73;;;25.23;;
15454;SDS011;21057;51.024;7.540;2023-01-15T04:36:56;26.93;;;25.43;;
15454;SDS011;21057;51.024;7.540;2023-01-15T04:41:52;27.07;;;25.57;;
15454;SDS011;21057;51.024;7.540;2023-01-15T04:44:37;26.97;;;25.23;;
15454;SDS011;21057;51.024;7.540;2023-01-15T04:47:04;26.33;;;24.93;;
15454;SDS011;21057;51.024;7.540;2023-01-15T04:49:32;26.30;;;24.90;;
15454;SDS011;21057;51.024;7.540;2023-01-15T04:52:00;26.00;;;24.60;;
15454;SDS011;21057;51.024;7.540;2023-01-15T04:54:27;25.47;;;23.90;;
15454;SDS011;21057;51.024;7.540;2023-01-15T04:56:54;26.03;;;24.43;;
15454;SDS011;21057;51.024;7.540;2023-01-15T04:59:21;26.57;;;25.07;;
15454;SDS011;21057;51.024;7.540;2023-01-15T05:01:50;26.00;;;24.60;;
15454;SDS011;21057;51.024;7.540;2023-01-15T05:04:17;25.57;;;24.17;;
15454;SDS011;21057;51.024;7.540;2023-01-15T05:06:46;26.67;;;25.17;;
15454;SDS011;21057;51.024;7.540;2023-01-15T05:09:12;25.60;;;24.20;;
15454;SDS011;21057;51.024;7.540;2023-01-15T05:11:39;26.20;;;24.70;;
15454;SDS011;21057;51.024;7.540;2023-01-15T05:14:06;27.13;;;25.03;;
15454;SDS011;21057;51.024;7.540;2023-01-15T05:16:34;26.60;;;25.10;;
15454;SDS011;21057;51.024;7.540;2023-01-15T05:19:02;27.23;;;25.73;;
15454;SDS011;21057;51.024;7.540;2023-01-15T05:21:31;27.10;;;25.40;;
15454;SDS011;21057;51.024;7.540;2023-01-15T05:24:02;27.40;;;25.80;;
15454;SDS011;21057;51.024;7.540;2023-01-15T05:26:32;28.07;;;25.77;;
15454;SDS011;21057;51.024;7.540;2023-01-15T05:29:05;27.50;;;25.87;;
15454;SDS011;21057;51.024;7.540;2023-01-15T05:31:32;26.37;;;24.87;;
15454;SDS011;21057;51.024;7.540;2023-01-15T05:34:00;26.47;;;24.97;;
15454;SDS011;21057;51.024;7.540;2023-01-15T05:36:28;27.30;;;25.67;;
15454;SDS011;21057;51.024;7.540;2023-01-15T05:38:56;26.60;;;25.10;;
15454;SDS011;21057;51.024;7.540;2023-01-15T05:41:27;25.63;;;24.17;;
15454;SDS011;21057;51.024;7.540;2023-01-15T05:44:12;25.77;;;24.27;;
15454;SDS011;21057;51.024;7.540;2023-01-15T05:46:40;25.73;;;24.23;;
15454;SDS011;21057;51.024;7.540;2023-01-15T05:49:09;25.57;;;23.80;;
15454;SDS011;21057;51.024;7.540;2023-01-15T05:51:37;25.30;;;23.90;;
15454;SDS011;21057;51.024;7.540;2023-01-15T05:54:05;25.90;;;24.40;;
15454;SDS011;21057;51.024;7.540;2023-01-15T05:56:37;26.13;;;24.63;;
15454;SDS011;21057;51.024;7.540;2023-01-15T05:59:05;26.00;;;24.40;;
15454;SDS011;21057;51.024;7.540;2023-01-15T06:01:32;26.13;;;24.53;;
15454;SDS011;21057;51.024;7.540;2023-01-15T06:04:00;26.03;;;24.53;;
15454;SDS011;21057;51.024;7.540;2023-01-15T06:06:27;26.43;;;24.73;;
15454;SDS011;21057;51.024;7.540;2023-01-15T06:09:01;27.30;;;25.63;;
15454;SDS011;21057;51.024;7.540;2023-01-15T06:11:28;27.63;;;25.57;;
15454;SDS011;21057;51.024;7.540;2023-01-15T06:14:03;25.50;;;24.10;;
15454;SDS011;21057;51.024;7.540;2023-01-15T06:16:30;25.30;;;23.80;;
15454;SDS011;21057;51.024;7.540;2023-01-15T06:18:59;25.77;;;24.37;;
15454;SDS011;21057;51.024;7.540;2023-01-15T06:21:26;26.17;;;24.50;;
15454;SDS011;21057;51.024;7.540;2023-01-15T06:23:55;26.03;;;24.37;;
15454;SDS011;21057;51.024;7.540;2023-01-15T06:26:21;25.50;;;23.90;;
15454;SDS011;21057;51.024;7.540;2023-01-15T06:28:49;25.80;;;24.07;;
15454;SDS011;21057;51.024;7.540;2023-01-15T06:31:18;25.70;;;24.20;;
15454;SDS011;21057;51.024;7.540;2023-01-15T06:36:17;25.63;;;24.23;;
15454;SDS011;21057;51.024;7.540;2023-01-15T06:38:46;22.97;;;21.70;;
15454;SDS011;21057;51.024;7.540;2023-01-15T06:41:16;23.63;;;22.33;;
15454;SDS011;21057;51.024;7.540;2023-01-15T06:43:57;24.10;;;22.80;;
15454;SDS011;21057;51.024;7.540;2023-01-15T06:46:44;24.20;;;22.70;;
15454;SDS011;21057;51.024;7.540;2023-01-15T06:49:29;24.27;;;22.87;;
15454;SDS011;21057;51.024;7.540;2023-01-15T06:51:56;23.77;;;22.27;;
15454;SDS011;21057;51.024;7.540;2023-01-15T06:54:23;23.50;;;22.20;;
15454;SDS011;21057;51.024;7.540;2023-01-15T06:56:50;24.43;;;23.03;;
15454;SDS011;21057;51.024;7.540;2023-01-15T06:59:17;24.90;;;23.00;;
15454;SDS011;21057;51.024;7.540;2023-01-15T07:01:45;23.23;;;21.93;;
15454;SDS011;21057;51.024;7.540;2023-01-15T07:04:12;24.30;;;22.90;;
15454;SDS011;21057;51.024;7.540;2023-01-15T07:06:40;24.17;;;22.77;;
15454;SDS011;21057;51.024;7.540;2023-01-15T07:09:06;24.03;;;22.73;;
15454;SDS011;21057;51.024;7.540;2023-01-15T07:11:33;25.63;;;23.83;;
15454;SDS011;21057;51.024;7.540;2023-01-15T07:14:13;24.50;;;23.10;;
15454;SDS011;21057;51.024;7.540;2023-01-15T07:16:40;24.00;;;22.40;;
15454;SDS011;21057;51.024;7.540;2023-01-15T07:19:08;24.73;;;23.33;;
15454;SDS011;21057;51.024;7.540;2023-01-15T07:21:35;25.70;;;24.00;;
15454;SDS011;21057;51.024;7.540;2023-01-15T07:24:02;25.80;;;24.03;;
15454;SDS011;21057;51.024;7.540;2023-01-15T07:26:29;25.87;;;24.37;;
15454;SDS011;21057;51.024;7.540;2023-01-15T07:28:58;24.30;;;22.90;;
15454;SDS011;21057;51.024;7.540;2023-01-15T07:31:25;25.53;;;23.83;;
15454;SDS011;21057;51.024;7.540;2023-01-15T07:33:54;25.13;;;23.73;;
15454;SDS011;21057;51.024;7.540;2023-01-15T07:36:22;25.20;;;23.63;;
15454;SDS011;21057;51.024;7.540;2023-01-15T07:38:50;24.20;;;22.80;;
15454;SDS011;21057;51.024;7.540;2023-01-15T07:41:17;24.57;;;23.00;;
15454;SDS011;21057;51.024;7.540;2023-01-15T07:44:01;23.40;;;21.83;;
15454;SDS011;21057;51.024;7.540;2023-01-15T07:47:00;25.93;;;24.07;;
15454;SDS011;21057;51.024;7.540;2023-01-15T07:49:45;24.47;;;22.97;;
15454;SDS011;21057;51.024;7.540;2023-01-15T07:52:14;26.73;;;25.00;;
15454;SDS011;21057;51.024;7.540;2023-01-15T07:54:42;26.37;;;24.97;;
15454;SDS011;21057;51.024;7.540;2023-01-15T07:57:10;25.63;;;24.23;;
15454;SDS011;21057;51.024;7.540;2023-01-15T07:59:38;25.90;;;24.50;;
15454;SDS011;21057;51.024;7.540;2023-01-15T08:02:05;27.03;;;25.53;;
15454;SDS011;21057;51.024;7.540;2023-01-15T08:04:32;28.40;;;26.80;;
15454;SDS011;21057;51.024;7.540;2023-01-15T08:06:59;27.80;;;26.30;;
15454;SDS011;21057;51.024;7.540;2023-01-15T08:09:27;27.43;;;25.93;;
15454;SDS011;21057;51.024;7.540;2023-01-15T08:11:54;27.87;;;26.37;;
15454;SDS011;21057;51.024;7.540;2023-01-15T08:14:42;26.90;;;25.40;;
15454;SDS011;21057;51.024;7.540;2023-01-15T08:17:26;26.07;;;24.43;;
15454;SDS011;21057;51.024;7.540;2023-01-15T08:19:53;23.63;;;22.33;;
15454;SDS011;21057;51.024;7.540;2023-01-15T08:22:20;24.87;;;23.47;;
15454;SDS011;21057;51.024;7.540;2023-01-15T08:24:48;24.93;;;23.53;;
15454;SDS011;21057;51.024;7.540;2023-01-15T08:27:15;23.70;;;22.40;;
15454;SDS011;21057;51.024;7.540;2023-01-15T08:29:44;24.07;;;22.67;;
15454;SDS011;21057;51.024;7.540;2023-01-15T08:32:11;23.50;;;22.20;;
15454;SDS011;21057;51.024;7.540;2023-01-15T08:34:38;24.30;;;22.90;;
15454;SDS011;21057;51.024;7.540;2023-01-15T08:37:04;24.07;;;22.70;;
15454;SDS011;21057;51.024;7.540;2023-01-15T08:39:31;24.27;;;22.93;;
15454;SDS011;21057;51.024;7.540;2023-01-15T08:42:01;23.97;;;22.17;;
15454;SDS011;21057;51.024;7.540;2023-01-15T08:44:28;22.80;;;21.50;;
15454;SDS011;21057;51.024;7.540;2023-01-15T08:46:54;23.27;;;21.97;;
15454;SDS011;21057;51.024;7.540;2023-01-15T08:49:23;22.23;;;21.03;;
15454;SDS011;21057;51.024;7.540;2023-01-15T08:51:50;22.83;;;21.53;;
15454;SDS011;21057;51.024;7.540;2023-01-15T08:54:17;24.03;;;22.73;;
15454;SDS011;21057;51.024;7.540;2023-01-15T08:56:45;27.60;;;25.27;;
15454;SDS011;21057;51.024;7.540;2023-01-15T08:59:16;24.47;;;23.10;;
15454;SDS011;21057;51.024;7.540;2023-01-15T09:01:43;23.00;;;21.73;;
15454;SDS011;21057;51.024;7.540;2023-01-15T09:04:11;22.60;;;21.30;;
15454;SDS011;21057;51.024;7.540;2023-01-15T09:06:39;21.30;;;20.10;;
15454;SDS011;21057;51.024;7.540;2023-01-15T09:09:06;22.07;;;20.87;;
15454;SDS011;21057;51.024;7.540;2023-01-15T09:11:33;23.00;;;21.27;;
15454;SDS011;21057;51.024;7.540;2023-01-15T09:14:00;22.53;;;21.23;;
15454;SDS011;21057;51.024;7.540;2023-01-15T09:16:29;24.20;;;22.90;;
15454;SDS011;21057;51.024;7.540;2023-01-15T09:18:56;24.13;;;22.83;;
15454;SDS011;21057;51.024;7.540;2023-01-15T09:21:23;24.20;;;22.90;;
15454;SDS011;21057;51.024;7.540;2023-01-15T09:23:50;25.60;;;24.10;;
15454;SDS011;21057;51.024;7.540;2023-01-15T09:26:24;25.50;;;23.97;;
15454;SDS011;21057;51.024;7.540;2023-01-15T09:28:55;24.60;;;23.20;;
15454;SDS011;21057;51.024;7.540;2023-01-15T09:31:23;25.10;;;23.70;;
15454;SDS011;21057;51.024;7.540;2023-01-15T09:33:51;24.90;;;23.50;;
15454;SDS011;21057;51.024;7.540;2023-01-15T09:36:21;24.60;;;23.20;;
15454;SDS011;21057;51.024;7.540;2023-01-15T09:38:50;25.63;;;24.23;;
15454;SDS011;21057;51.024;7.540;2023-01-15T09:41:17;24.80;;;23.40;;
15454;SDS011;21057;51.024;7.540;2023-01-15T09:46:46;26.77;;;24.90;;
15454;SDS011;21057;51.024;7.540;2023-01-15T09:49:26;28.00;;;26.40;;
15454;SDS011;21057;51.024;7.540;2023-01-15T09:52:00;28.27;;;26.67;;
15454;SDS011;21057;51.024;7.540;2023-01-15T09:54:41;26.63;;;25.13;;
15454;SDS011;21057;51.024;7.540;2023-01-15T09:57:15;27.57;;;25.87;;
15454;SDS011;21057;51.024;7.540;2023-01-15T09:59:44;26.27;;;24.77;;
15454;SDS011;21057;51.024;7.540;2023-01-15T10:02:16;26.40;;;24.80;;
15454;SDS011;21057;51.024;7.540;2023-01-15T10:04:51;26.30;;;24.67;;
15454;SDS011;21057;51.024;7.540;2023-01-15T10:07:24;26.70;;;24.63;;
15454;SDS011;21057;51.024;7.540;2023-01-15T10:09:56;26.13;;;24.53;;
15454;SDS011;21057;51.024;7.540;2023-01-15T10:12:27;25.90;;;24.40;;
15454;SDS011;21057;51.024;7.540;2023-01-15T10:15:05;25.40;;;23.90;;
15454;SDS011;21057;51.024;7.540;2023-01-15T10:17:42;26.93;;;24.90;;
15454;SDS011;21057;51.024;7.540;2023-01-15T10:20:16;26.70;;;25.10;;
15454;SDS011;21057;51.024;7.540;2023-01-15T10:23:08;26.10;;;24.60;;
15454;SDS011;21057;51.024;7.540;2023-01-15T10:25:47;27.10;;;25.50;;
15454;SDS011;21057;51.024;7.540;2023-01-15T10:28:18;25.70;;;24.20;;
15454;SDS011;21057;51.024;7.540;2023-01-15T10:30:48;27.23;;;25.53;;
15454;SDS011;21057;51.024;7.540;2023-01-15T10:33:27;24.97;;;23.47;;
15454;SDS011;21057;51.024;7.540;2023-01-15T10:36:10;25.20;;;23.67;;
15454;SDS011;21057;51.024;7.540;2023-01-15T10:38:43;25.67;;;23.97;;
15454;SDS011;21057;51.024;7.540;2023-01-15T10:41:21;25.20;;;23.70;;
15454;SDS011;21057;51.024;7.540;2023-01-15T10:44:02;24.43;;;22.93;;
15454;SDS011;21057;51.024;7.540;2023-01-15T10:46:38;24.90;;;23.10;;
15454;SDS011;21057;51.024;7.540;2023-01-15T10:49:10;24.23;;;22.83;;
15454;SDS011;21057;51.024;7.540;2023-01-15T10:51:41;22.50;;;21.20;;
15454;SDS011;21057;51.024;7.540;2023-01-15T10:54:13;25.20;;;22.97;;
15454;SDS011;21057;51.024;7.540;2023-01-15T10:56:48;23.73;;;22.30;;
15454;SDS011;21057;51.024;7.540;2023-01-15T10:59:27;25.30;;;23.90;;
15454;SDS011;21057;51.024;7.540;2023-01-15T11:02:00;24.07;;;22.33;;
15454;SDS011;21057;51.024;7.540;2023-01-15T11:04:37;23.77;;;21.37;;
15454;SDS011;21057;51.024;7.540;2023-01-15T11:07:07;23.67;;;22.30;;
15454;SDS011;21057;51.024;7.540;2023-01-15T11:09:36;23.90;;;22.50;;
15454;SDS011;21057;51.024;7.540;2023-01-15T11:12:12;21.43;;;20.23;;
15454;SDS011;21057;51.024;7.540;2023-01-15T11:15:14;22.70;;;20.40;;
15454;SDS011;21057;51.024;7.540;2023-01-15T11:18:06;21.47;;;20.17;;
15454;SDS011;21057;51.024;7.540;2023-01-15T11:20:57;21.13;;;19.47;;
15454;SDS011;21057;51.024;7.540;2023-01-15T11:23:27;20.37;;;19.17;;
15454;SDS011;21057;51.024;7.540;2023-01-15T11:26:01;20.90;;;19.50;;
15454;SDS011;21057;51.024;7.540;2023-01-15T11:28:29;23.97;;;22.27;;
15454;SDS011;21057;51.024;7.540;2023-01-15T11:30:59;21.60;;;20.40;;
15454;SDS011;21057;51.024;7.540;2023-01-15T11:33:27;21.03;;;19.57;;
15454;SDS011;21057;51.024;7.540;2023-01-15T11:35:57;20.30;;;19.20;;
15454;SDS011;21057;51.024;7.540;2023-01-15T11:38:26;21.23;;;19.97;;
15454;SDS011;21057;51.024;7.540;2023-01-15T11:40:56;20.13;;;18.93;;
15454;SDS011;21057;51.024;7.540;2023-01-15T11:43:25;20.07;;;18.77;;
15454;SDS011;21057;51.024;7.540;2023-01-15T11:46:22;20.23;;;18.93;;
15454;SDS011;21057;51.024;7.540;2023-01-15T11:49:07;19.77;;;18.67;;
15454;SDS011;21057;51.024;7.540;2023-01-15T11:51:53;20.17;;;18.97;;
15454;SDS011;21057;51.024;7.540;2023-01-15T11:54:25;21.10;;;19.80;;
15454;SDS011;21057;51.024;7.540;2023-01-15T11:56:52;19.63;;;18.47;;
15454;SDS011;21057;51.024;7.540;2023-01-15T11:59:20;20.67;;;19.03;;
15454;SDS011;21057;51.024;7.540;2023-01-15T12:01:48;19.03;;;17.97;;
15454;SDS011;21057;51.024;7.540;2023-01-15T12:04:29;20.17;;;19.13;;
15454;SDS011;21057;51.024;7.540;2023-01-15T12:07:01;21.43;;;20.13;;
15454;SDS011;21057;51.024;7.540;2023-01-15T12:09:38;21.77;;;20.57;;
15454;SDS011;21057;51.024;7.540;2023-01-15T12:12:14;20.00;;;18.90;;
15454;SDS011;21057;51.024;7.540;2023-01-15T12:14:57;19.30;;;18.20;;
15454;SDS011;21057;51.024;7.540;2023-01-15T12:17:40;19.93;;;18.80;;
15454;SDS011;21057;51.024;7.540;2023-01-15T12:20:19;20.17;;;18.93;;
15454;SDS011;21057;51.024;7.540;2023-01-15T12:22:59;19.73;;;18.60;;
15454;SDS011;21057;51.024;7.540;2023-01-15T12:25:43;26.40;;;18.70;;
15454;SDS011;21057;51.024;7.540;2023-01-15T12:28:21;21.37;;;20.27;;
15454;SDS011;21057;51.024;7.540;2023-01-15T12:30:54;22.40;;;21.10;;
15454;SDS011;21057;51.024;7.540;2023-01-15T12:33:31;21.57;;;20.47;;
15454;SDS011;21057;51.024;7.540;2023-01-15T12:36:06;21.53;;;20.33;;
15454;SDS011;21057;51.024;7.540;2023-01-15T12:38:43;20.73;;;19.63;;
15454;SDS011;21057;51.024;7.540;2023-01-15T12:43:58;20.67;;;18.90;;
15454;SDS011;21057;51.024;7.540;2023-01-15T12:46:42;19.47;;;18.30;;
15454;SDS011;21057;51.024;7.540;2023-01-15T12:49:13;19.17;;;18.07;;
15454;SDS011;21057;51.024;7.540;2023-01-15T12:51:52;18.83;;;17.73;;
15454;SDS011;21057;51.024;7.540;2023-01-15T12:54:27;19.63;;;18.33;;
15454;SDS011;21057;51.024;7.540;2023-01-15T12:57:02;19.53;;;18.23;;
15454;SDS011;21057;51.024;7.540;2023-01-15T12:59:43;19.33;;;18.23;;
15454;SDS011;21057;51.024;7.540;2023-01-15T13:02:17;19.90;;;18.80;;
15454;SDS011;21057;51.024;7.540;2023-01-15T13:05:02;19.83;;;18.50;;
15454;SDS011;21057;51.024;7.540;2023-01-15T13:07:41;19.30;;;18.20;;
15454;SDS011;21057;51.024;7.540;2023-01-15T13:10:16;20.90;;;19.37;;
15454;SDS011;21057;51.024;7.540;2023-01-15T13:12:48;20.73;;;19.53;;
15454;SDS011;21057;51.024;7.540;2023-01-15T13:15:17;20.33;;;19.23;;
15454;SDS011;21057;51.024;7.540;2023-01-15T13:17:51;19.63;;;18.63;;
15454;SDS011;21057;51.024;7.540;2023-01-15T13:20:27;20.40;;;19.30;;
15454;SDS011;21057;51.024;7.540;2023-01-15T13:23:07;19.00;;;18.00;;
15454;SDS011;21057;51.024;7.540;2023-01-15T13:25:42;19.13;;;17.93;;
15454;SDS011;21057;51.024;7.540;2023-01-15T13:28:23;18.93;;;17.80;;
15454;SDS011;21057;51.024;7.540;2023-01-15T13:31:01;19.07;;;17.77;;
15454;SDS011;21057;51.024;7.540;2023-01-15T13:33:36;18.47;;;17.37;;
15454;SDS011;21057;51.024;7.540;2023-01-15T13:36:09;18.93;;;17.73;;
15454;SDS011;21057;51.024;7.540;2023-01-15T13:38:40;18.23;;;17.07;;
15454;SDS011;21057;51.024;7.540;2023-01-15T13:41:11;17.83;;;16.83;;
15454;SDS011;21057;51.024;7.540;2023-01-15T13:44:10;18.90;;;17.80;;
15454;SDS011;21057;51.024;7.540;2023-01-15T13:46:44;19.27;;;18.07;;
15454;SDS011;21057;51.024;7.540;2023-01-15T13:49:16;19.40;;;18.40;;
15454;SDS011;21057;51.024;7.540;2023-01-15T13:51:47;20.30;;;19.20;;
15454;SDS011;21057;51.024;7.540;2023-01-15T13:54:15;19.70;;;18.60;;
15454;SDS011;21057;51.024;7.540;2023-01-15T13:56:45;19.27;;;17.97;;
15454;SDS011;21057;51.024;7.540;2023-01-15T14:02:12;19.80;;;18.47;;
15454;SDS011;21057;51.024;7.540;2023-01-15T14:04:52;18.83;;;17.73;;
15454;SDS011;21057;51.024;7.540;2023-01-15T14:07:19;19.10;;;18.00;;
15454;SDS011;21057;51.024;7.540;2023-01-15T14:10:05;18.33;;;17.23;;
15454;SDS011;21057;51.024;7.540;2023-01-15T14:12:35;17.93;;;16.83;;
15454;SDS011;21057;51.024;7.540;2023-01-15T14:15:18;18.03;;;16.83;;
15454;SDS011;21057;51.024;7.540;2023-01-15T14:18:09;18.00;;;16.90;;
15454;SDS011;21057;51.024;7.540;2023-01-15T14:20:52;18.60;;;17.60;;
15454;SDS011;21057;51.024;7.540;2023-01-15T14:23:31;18.87;;;17.50;;
15454;SDS011;21057;51.024;7.540;2023-01-15T14:26:10;18.43;;;17.43;;
15454;SDS011;21057;51.024;7.540;2023-01-15T14:28:47;17.83;;;16.83;;
15454;SDS011;21057;51.024;7.540;2023-01-15T14:31:46;18.33;;;17.33;;
15454;SDS011;21057;51.024;7.540;2023-01-15T14:34:22;18.13;;;17.03;;
15454;SDS011;21057;51.024;7.540;2023-01-15T14:36:53;18.17;;;17.13;;
15454;SDS011;21057;51.024;7.540;2023-01-15T14:39:27;18.00;;;16.90;;
15454;SDS011;21057;51.024;7.540;2023-01-15T14:42:02;18.17;;;16.97;;
15454;SDS011;21057;51.024;7.540;2023-01-15T14:44:57;19.13;;;18.13;;
15454;SDS011;21057;51.024;7.540;2023-01-15T14:47:28;19.50;;;18.50;;
15454;SDS011;21057;51.024;7.540;2023-01-15T14:50:00;19.47;;;18.47;;
15454;SDS011;21057;51.024;7.540;2023-01-15T14:52:29;19.37;;;18.17;;
15454;SDS011;21057;51.024;7.540;2023-01-15T14:54:56;20.57;;;19.47;;
15454;SDS011;21057;51.024;7.540;2023-01-15T14:57:24;19.70;;;18.70;;
15454;SDS011;21057;51.024;7.540;2023-01-15T14:59:53;19.60;;;18.50;;
15454;SDS011;21057;51.024;7.540;2023-01-15T15:02:25;19.60;;;18.33;;
15454;SDS011;21057;51.024;7.540;2023-01-15T15:04:59;19.83;;;18.63;;